Hassi Messaoud-Oued Irara Krim Belkacem Airport

DAUH · Ouargla, 阿尔及利亚

罗盘
风向 的 风向 的 风向 到 风向 030° Oued Irara Airport 18/36
风: 7 kt, 3 beaufort

6 kt

3 kt
改变
0 ft 1.000 2.000 3.000 4.000 5.000
CAVOK
METAR DAUH 232100Z 03007KT 350V080 CAVOK 37/08 Q1005

METAR Oued Irara Airport - DAUH/HME

Oued Irara Airport是,阿尔及利亚中的中型机场。 该机场位于纬度31,67290和经度6,14038。 该机场有一条跑道: 18/36. 本场的ICAO机场代码为DAUH。 该机场的IATA代码为HME。 机场在Alger FIR中。

该航空气象观测是针对Oued Irara Airport在2024年6月23日 22:00, 当地时间进行的。

机场观察

风向为030°,速度为7 kt。 风向在350°和080°之间变化。

天气为CAVOK。这意味着在5.000 ft或MSA(最低安全高度)以下(以较高者为准)以下没有云。这也意味着没有观测到积雨云或高耸的积云,可见度为10 km 或者更多或更高。此外,不会有雾,降雨或其他重要天气。

温度和风寒是37 °C。 露点为8 °C,相对湿度为17%。 海平面上的气压为1005 hPa (QNH)。

白天

今天,太阳从05:31升起,在19:44降落。 这适用于Oued Irara Airport,世界夏令时可能有所不同。 当地时间与世界标准时间之间的时差为+1 小时。 夏令时目前正在进行中。

公司介绍

我们没有关于这个机场的公司信息。

体会

到Vliegles.nl去找飞行课程,跳伞和其他飞行体验。 浏览页面,了解Oued Irara Airport附近所有可用的活动。 你也可以使用搜索功能来寻找你所在地附近的特定飞行课程、跳伞或其他飞行体验。

跑道

Id 标题 侧风 逆风 侧风 %
18/36 184°-004° 3 kt 6 kt 44 %

逆风成分最大的方向会被突出显示,并用于横风计算。 这并不一定意味着这个方向在使用。

温度 & 天气

温度 37 °C
露点 8 °C
相对湿度 17%
Kp-index 1 (0-9)

白天

日出
05:31 (6:28)
中午
12:37
日落
19:44

小工具

你想在你的网站上有一个关于Oued Irara Airport的当前航空天气(METAR)的小部件吗?

显示HTML代码
报告变更